KPTB/PTB METAR and TAF weather

Enter ICAO airport designator
Station Type Date Time Source
KPTB METAR 2020/01/27 16:55 UTC NOAA

KPTB 271655Z AUTO 27010KT 10SM OVC095 10/M01 A2985 RMK AO2 T01021006


Station Type Date Time Source
KPTB Decoded METAR 2020/01/27 16:55 UTC NOAA

Petersburg, Dinwiddie County Airport, VA, United States (KPTB) 37-11N 077-31W
Jan 27, 2020 - 11:55 AM EST / 2020.01.27 1655 UTC
Wind: from the W (270 degrees) at 12 MPH (10 KT):0
Visibility: 10 mile(s):0
Sky conditions: overcast
Temperature: 50.4 F (10.2 C)
Dew Point: 30.9 F (-0.6 C)
Relative Humidity: 47%
Pressure (altimeter): 29.85 in. Hg (1010 hPa)
ob: KPTB 271655Z AUTO 27010KT 10SM OVC095 10/M01 A2985 RMK AO2 T01021006
cycle: 17

Station Type Date Time Source
KPTB TAF UTC NOAA

Error!

Example: see airport list